sensor_id;sensor_type;location;lat;lon;timestamp;pressure;altitude;pressure_sealevel;temperature;humidity
24996;BME280;13016;52.162;21.034;2023-02-14T00:01:09;101943.37;;;10.57;53.91
24996;BME280;13016;52.162;21.034;2023-02-14T00:03:35;101942.96;;;10.63;53.90
24996;BME280;13016;52.162;21.034;2023-02-14T00:06:08;101939.34;;;10.61;53.90
24996;BME280;13016;52.162;21.034;2023-02-14T00:08:34;101940.50;;;10.58;54.14
24996;BME280;13016;52.162;21.034;2023-02-14T00:11:00;101937.59;;;10.61;53.81
24996;BME280;13016;52.162;21.034;2023-02-14T00:13:25;101942.83;;;10.58;54.13
24996;BME280;13016;52.162;21.034;2023-02-14T00:16:02;101948.72;;;10.65;53.99
24996;BME280;13016;52.162;21.034;2023-02-14T00:18:28;101958.81;;;10.74;53.95
24996;BME280;13016;52.162;21.034;2023-02-14T00:24:20;101960.98;;;10.77;53.54
24996;BME280;13016;52.162;21.034;2023-02-14T00:26:49;101960.42;;;10.49;53.98
24996;BME280;13016;52.162;21.034;2023-02-14T00:29:28;101957.36;;;10.46;54.28
24996;BME280;13016;52.162;21.034;2023-02-14T00:31:57;101963.38;;;10.60;54.20
24996;BME280;13016;52.162;21.034;2023-02-14T00:34:27;101966.75;;;10.59;54.10
24996;BME280;13016;52.162;21.034;2023-02-14T00:40:06;101969.36;;;10.41;54.14
24996;BME280;13016;52.162;21.034;2023-02-14T00:57:58;101972.05;;;11.15;52.15
24996;BME280;13016;52.162;21.034;2023-02-14T01:14:49;101969.34;;;11.13;51.94
24996;BME280;13016;52.162;21.034;2023-02-14T01:17:36;101959.43;;;10.95;52.35
24996;BME280;13016;52.162;21.034;2023-02-14T01:20:11;101959.94;;;10.72;53.25
24996;BME280;13016;52.162;21.034;2023-02-14T01:22:36;101957.48;;;10.57;53.74
24996;BME280;13016;52.162;21.034;2023-02-14T01:25:05;101963.83;;;10.48;54.07
24996;BME280;13016;52.162;21.034;2023-02-14T01:27:30;101961.75;;;10.41;54.28
24996;BME280;13016;52.162;21.034;2023-02-14T01:29:59;101954.52;;;10.21;54.89
24996;BME280;13016;52.162;21.034;2023-02-14T01:32:24;101966.39;;;10.09;55.29
24996;BME280;13016;52.162;21.034;2023-02-14T01:34:50;101970.48;;;10.18;55.35
24996;BME280;13016;52.162;21.034;2023-02-14T01:37:18;101970.71;;;10.17;55.30
24996;BME280;13016;52.162;21.034;2023-02-14T01:40:13;101970.84;;;10.13;55.51
24996;BME280;13016;52.162;21.034;2023-02-14T01:42:53;101975.61;;;9.91;56.04
24996;BME280;13016;52.162;21.034;2023-02-14T01:45:21;101968.54;;;9.81;56.74
24996;BME280;13016;52.162;21.034;2023-02-14T01:50:40;101958.62;;;9.72;56.93
24996;BME280;13016;52.162;21.034;2023-02-14T01:56:22;101965.55;;;9.91;56.58
24996;BME280;13016;52.162;21.034;2023-02-14T01:58:50;101970.11;;;9.82;56.95
24996;BME280;13016;52.162;21.034;2023-02-14T02:01:18;101970.77;;;9.94;56.79
24996;BME280;13016;52.162;21.034;2023-02-14T02:07:07;101964.64;;;9.97;56.69
24996;BME280;13016;52.162;21.034;2023-02-14T02:10:07;101965.73;;;9.97;56.80
24996;BME280;13016;52.162;21.034;2023-02-14T02:12:36;101961.42;;;9.99;56.59
24996;BME280;13016;52.162;21.034;2023-02-14T02:15:04;101964.37;;;9.90;56.85
24996;BME280;13016;52.162;21.034;2023-02-14T02:21:13;101969.25;;;9.81;57.03
24996;BME280;13016;52.162;21.034;2023-02-14T02:32:56;101968.98;;;9.84;57.22
24996;BME280;13016;52.162;21.034;2023-02-14T02:41:18;101982.63;;;9.97;56.81
24996;BME280;13016;52.162;21.034;2023-02-14T02:49:11;101992.66;;;9.71;57.33
24996;BME280;13016;52.162;21.034;2023-02-14T02:51:53;101987.65;;;9.79;57.65
24996;BME280;13016;52.162;21.034;2023-02-14T02:54:43;101987.97;;;9.85;57.22
24996;BME280;13016;52.162;21.034;2023-02-14T02:57:22;101989.35;;;9.85;57.14
24996;BME280;13016;52.162;21.034;2023-02-14T03:05:28;101995.92;;;9.84;56.99
24996;BME280;13016;52.162;21.034;2023-02-14T03:08:15;101996.02;;;9.76;57.13
24996;BME280;13016;52.162;21.034;2023-02-14T03:11:08;101994.80;;;9.81;56.97
24996;BME280;13016;52.162;21.034;2023-02-14T03:13:45;102000.20;;;10.15;56.58
24996;BME280;13016;52.162;21.034;2023-02-14T03:16:39;102001.61;;;10.31;55.98
24996;BME280;13016;52.162;21.034;2023-02-14T03:27:35;102000.93;;;10.03;56.08
24996;BME280;13016;52.162;21.034;2023-02-14T03:33:08;102005.36;;;10.03;56.27
24996;BME280;13016;52.162;21.034;2023-02-14T03:35:36;102013.18;;;10.18;56.03
24996;BME280;13016;52.162;21.034;2023-02-14T03:41:45;102010.39;;;10.27;55.53
24996;BME280;13016;52.162;21.034;2023-02-14T03:47:40;102014.48;;;10.10;55.86
24996;BME280;13016;52.162;21.034;2023-02-14T03:50:18;102007.67;;;9.92;56.02
24996;BME280;13016;52.162;21.034;2023-02-14T03:59:09;102003.89;;;9.73;56.67
24996;BME280;13016;52.162;21.034;2023-02-14T04:05:12;101999.42;;;9.85;56.48
24996;BME280;13016;52.162;21.034;2023-02-14T04:13:58;102005.63;;;9.73;56.41
24996;BME280;13016;52.162;21.034;2023-02-14T04:16:23;102001.35;;;9.64;56.97
24996;BME280;13016;52.162;21.034;2023-02-14T04:19:03;101997.98;;;9.86;56.75
24996;BME280;13016;52.162;21.034;2023-02-14T04:21:28;101997.56;;;10.04;56.28
24996;BME280;13016;52.162;21.034;2023-02-14T04:23:54;102002.73;;;10.13;55.94
24996;BME280;13016;52.162;21.034;2023-02-14T04:26:19;101997.84;;;10.07;55.82
24996;BME280;13016;52.162;21.034;2023-02-14T04:29:16;102000.02;;;10.05;55.89
24996;BME280;13016;52.162;21.034;2023-02-14T04:31:42;102001.88;;;9.91;56.21
24996;BME280;13016;52.162;21.034;2023-02-14T04:34:07;102010.33;;;9.97;56.33
24996;BME280;13016;52.162;21.034;2023-02-14T04:37:07;102011.61;;;10.01;56.23
24996;BME280;13016;52.162;21.034;2023-02-14T04:39:32;102014.64;;;9.94;56.47
24996;BME280;13016;52.162;21.034;2023-02-14T04:41:58;102020.98;;;10.00;56.62
24996;BME280;13016;52.162;21.034;2023-02-14T04:44:23;102023.50;;;10.15;56.16
24996;BME280;13016;52.162;21.034;2023-02-14T04:46:49;102026.23;;;9.95;56.24
24996;BME280;13016;52.162;21.034;2023-02-14T04:49:14;102027.46;;;9.85;56.54
24996;BME280;13016;52.162;21.034;2023-02-14T04:51:39;102033.60;;;9.80;56.82
24996;BME280;13016;52.162;21.034;2023-02-14T04:54:20;102038.38;;;9.85;56.69
24996;BME280;13016;52.162;21.034;2023-02-14T04:56:46;102037.36;;;9.78;56.93
24996;BME280;13016;52.162;21.034;2023-02-14T04:59:17;102037.85;;;9.85;57.01
24996;BME280;13016;52.162;21.034;2023-02-14T05:01:43;102040.29;;;9.86;56.88
24996;BME280;13016;52.162;21.034;2023-02-14T05:04:09;102044.37;;;9.96;56.76
24996;BME280;13016;52.162;21.034;2023-02-14T05:06:34;102045.69;;;9.88;56.56
24996;BME280;13016;52.162;21.034;2023-02-14T05:09:00;102052.08;;;9.87;56.75
24996;BME280;13016;52.162;21.034;2023-02-14T05:11:26;102054.80;;;9.95;56.63
24996;BME280;13016;52.162;21.034;2023-02-14T05:13:51;102054.65;;;9.78;56.83
24996;BME280;13016;52.162;21.034;2023-02-14T05:16:17;102054.88;;;9.70;57.10
24996;BME280;13016;52.162;21.034;2023-02-14T05:18:42;102055.73;;;9.66;57.34
24996;BME280;13016;52.162;21.034;2023-02-14T05:21:08;102064.10;;;9.85;57.43
24996;BME280;13016;52.162;21.034;2023-02-14T05:23:33;102065.80;;;9.94;56.95
24996;BME280;13016;52.162;21.034;2023-02-14T05:25:58;102053.97;;;9.99;56.82
24996;BME280;13016;52.162;21.034;2023-02-14T05:28:23;102056.88;;;9.91;56.69
24996;BME280;13016;52.162;21.034;2023-02-14T05:30:50;102064.48;;;9.90;56.79
24996;BME280;13016;52.162;21.034;2023-02-14T05:33:15;102064.34;;;9.89;56.78
24996;BME280;13016;52.162;21.034;2023-02-14T05:35:41;102055.95;;;9.81;56.79
24996;BME280;13016;52.162;21.034;2023-02-14T05:38:06;102066.38;;;9.64;57.51
24996;BME280;13016;52.162;21.034;2023-02-14T05:40:31;102071.47;;;9.70;57.30
24996;BME280;13016;52.162;21.034;2023-02-14T05:42:56;102069.23;;;9.79;57.17
24996;BME280;13016;52.162;21.034;2023-02-14T05:45:25;102067.38;;;9.82;57.20
24996;BME280;13016;52.162;21.034;2023-02-14T05:47:50;102064.38;;;9.82;56.94
24996;BME280;13016;52.162;21.034;2023-02-14T05:50:17;102064.98;;;9.85;56.93
24996;BME280;13016;52.162;21.034;2023-02-14T05:52:42;102067.59;;;9.81;57.02
24996;BME280;13016;52.162;21.034;2023-02-14T05:55:09;102068.90;;;9.78;57.19
24996;BME280;13016;52.162;21.034;2023-02-14T05:57:34;102063.59;;;9.62;57.42
24996;BME280;13016;52.162;21.034;2023-02-14T05:59:59;102066.31;;;9.54;57.77
24996;BME280;13016;52.162;21.034;2023-02-14T06:02:25;102074.01;;;9.50;58.12
24996;BME280;13016;52.162;21.034;2023-02-14T06:04:50;102073.72;;;9.53;57.93
24996;BME280;13016;52.162;21.034;2023-02-14T06:07:16;102078.35;;;9.46;58.24
24996;BME280;13016;52.162;21.034;2023-02-14T06:09:41;102079.73;;;9.58;58.15
24996;BME280;13016;52.162;21.034;2023-02-14T06:12:06;102079.49;;;9.72;57.82
24996;BME280;13016;52.162;21.034;2023-02-14T06:14:32;102086.66;;;9.74;57.68
24996;BME280;13016;52.162;21.034;2023-02-14T06:16:57;102088.52;;;9.77;57.50
24996;BME280;13016;52.162;21.034;2023-02-14T06:19:22;102090.63;;;9.60;57.63
24996;BME280;13016;52.162;21.034;2023-02-14T06:21:48;102091.82;;;9.55;58.06
24996;BME280;13016;52.162;21.034;2023-02-14T06:24:13;102095.58;;;9.71;57.61
24996;BME280;13016;52.162;21.034;2023-02-14T06:26:38;102100.80;;;9.61;57.73
24996;BME280;13016;52.162;21.034;2023-02-14T06:29:04;102096.48;;;9.59;57.96
24996;BME280;13016;52.162;21.034;2023-02-14T06:31:30;102094.39;;;9.46;57.95
24996;BME280;13016;52.162;21.034;2023-02-14T06:33:55;102094.91;;;9.34;58.62
24996;BME280;13016;52.162;21.034;2023-02-14T06:36:22;102099.13;;;9.46;58.65
24996;BME280;13016;52.162;21.034;2023-02-14T06:38:48;102106.23;;;9.62;58.16
24996;BME280;13016;52.162;21.034;2023-02-14T06:41:14;102104.82;;;9.56;58.28
24996;BME280;13016;52.162;21.034;2023-02-14T06:43:40;102101.33;;;9.78;57.98
24996;BME280;13016;52.162;21.034;2023-02-14T06:46:05;102098.31;;;9.73;57.43
24996;BME280;13016;52.162;21.034;2023-02-14T06:48:31;102105.67;;;9.64;57.75
24996;BME280;13016;52.162;21.034;2023-02-14T06:50:57;102105.42;;;9.66;57.70
24996;BME280;13016;52.162;21.034;2023-02-14T06:53:22;102100.89;;;9.70;57.62
24996;BME280;13016;52.162;21.034;2023-02-14T06:55:47;102100.16;;;9.82;57.48
24996;BME280;13016;52.162;21.034;2023-02-14T06:58:13;102097.98;;;9.84;57.17
24996;BME280;13016;52.162;21.034;2023-02-14T07:00:38;102099.00;;;9.91;57.02
24996;BME280;13016;52.162;21.034;2023-02-14T07:03:03;102103.96;;;9.62;57.55
24996;BME280;13016;52.162;21.034;2023-02-14T07:05:28;102098.59;;;9.53;57.95
24996;BME280;13016;52.162;21.034;2023-02-14T07:08:00;102099.31;;;9.58;58.01
24996;BME280;13016;52.162;21.034;2023-02-14T07:10:25;102101.98;;;9.63;57.79
24996;BME280;13016;52.162;21.034;2023-02-14T07:13:18;102101.79;;;9.64;57.85
24996;BME280;13016;52.162;21.034;2023-02-14T07:15:44;102100.23;;;9.74;57.69
24996;BME280;13016;52.162;21.034;2023-02-14T07:18:21;102103.31;;;9.65;57.54
24996;BME280;13016;52.162;21.034;2023-02-14T07:20:48;102106.91;;;9.63;57.73
24996;BME280;13016;52.162;21.034;2023-02-14T07:23:14;102110.77;;;9.70;57.79
24996;BME280;13016;52.162;21.034;2023-02-14T07:25:39;102115.33;;;9.70;57.68
24996;BME280;13016;52.162;21.034;2023-02-14T07:28:05;102112.16;;;9.82;57.41
24996;BME280;13016;52.162;21.034;2023-02-14T07:30:33;102122.48;;;9.84;57.32
24996;BME280;13016;52.162;21.034;2023-02-14T07:33:08;102123.59;;;9.71;57.39
24996;BME280;13016;52.162;21.034;2023-02-14T07:35:33;102119.93;;;9.64;57.60
24996;BME280;13016;52.162;21.034;2023-02-14T07:37:58;102122.62;;;9.68;57.43
24996;BME280;13016;52.162;21.034;2023-02-14T07:40:53;102125.18;;;9.76;57.21
24996;BME280;13016;52.162;21.034;2023-02-14T07:45:46;102125.41;;;9.69;57.35
24996;BME280;13016;52.162;21.034;2023-02-14T07:48:12;102128.45;;;9.67;57.58
24996;BME280;13016;52.162;21.034;2023-02-14T07:50:37;102122.93;;;9.63;57.61
24996;BME280;13016;52.162;21.034;2023-02-14T07:53:02;102131.46;;;9.73;57.50
24996;BME280;13016;52.162;21.034;2023-02-14T07:55:30;102135.23;;;9.76;57.40
24996;BME280;13016;52.162;21.034;2023-02-14T07:57:55;102140.35;;;9.88;57.37
24996;BME280;13016;52.162;21.034;2023-02-14T08:00:21;102149.15;;;9.94;57.02
24996;BME280;13016;52.162;21.034;2023-02-14T08:06:08;102151.48;;;10.05;56.87
24996;BME280;13016;52.162;21.034;2023-02-14T08:11:42;102165.41;;;9.93;56.94
24996;BME280;13016;52.162;21.034;2023-02-14T08:14:48;102165.23;;;9.93;57.11
24996;BME280;13016;52.162;21.034;2023-02-14T08:17:13;102174.31;;;9.84;56.96
24996;BME280;13016;52.162;21.034;2023-02-14T08:19:38;102179.61;;;9.84;57.29
24996;BME280;13016;52.162;21.034;2023-02-14T08:22:05;102177.98;;;9.96;57.10
24996;BME280;13016;52.162;21.034;2023-02-14T08:24:31;102181.17;;;10.08;56.90
24996;BME280;13016;52.162;21.034;2023-02-14T08:26:56;102178.52;;;10.09;56.77
24996;BME280;13016;52.162;21.034;2023-02-14T08:29:54;102177.16;;;10.13;56.63
24996;BME280;13016;52.162;21.034;2023-02-14T08:38:40;102167.30;;;10.06;56.37
24996;BME280;13016;52.162;21.034;2023-02-14T08:43:29;102171.30;;;10.08;56.52
24996;BME280;13016;52.162;21.034;2023-02-14T08:46:33;102172.17;;;10.20;56.18
24996;BME280;13016;52.162;21.034;2023-02-14T08:48:59;102174.39;;;10.17;56.07
24996;BME280;13016;52.162;21.034;2023-02-14T08:51:24;102174.61;;;10.10;56.08
24996;BME280;13016;52.162;21.034;2023-02-14T08:53:50;102178.04;;;9.95;56.47
24996;BME280;13016;52.162;21.034;2023-02-14T08:56:15;102180.77;;;9.92;56.74
24996;BME280;13016;52.162;21.034;2023-02-14T08:58:41;102180.48;;;10.01;56.56
24996;BME280;13016;52.162;21.034;2023-02-14T09:01:08;102180.13;;;10.13;56.31
24996;BME280;13016;52.162;21.034;2023-02-14T09:03:33;102186.67;;;10.13;56.39
24996;BME280;13016;52.162;21.034;2023-02-14T09:06:03;102184.66;;;10.15;56.05
24996;BME280;13016;52.162;21.034;2023-02-14T09:08:28;102181.64;;;10.22;55.69
24996;BME280;13016;52.162;21.034;2023-02-14T09:10:53;102180.34;;;10.30;55.64
24996;BME280;13016;52.162;21.034;2023-02-14T09:13:19;102180.06;;;10.45;55.66
24996;BME280;13016;52.162;21.034;2023-02-14T09:15:44;102185.80;;;10.47;55.35
24996;BME280;13016;52.162;21.034;2023-02-14T09:18:09;102185.31;;;10.56;55.44
24996;BME280;13016;52.162;21.034;2023-02-14T09:20:35;102191.14;;;10.63;55.02
24996;BME280;13016;52.162;21.034;2023-02-14T09:23:00;102186.34;;;10.52;55.07
24996;BME280;13016;52.162;21.034;2023-02-14T09:25:25;102186.63;;;10.37;55.40
24996;BME280;13016;52.162;21.034;2023-02-14T09:27:50;102186.20;;;10.28;55.64
24996;BME280;13016;52.162;21.034;2023-02-14T09:30:16;102184.71;;;10.31;55.58
24996;BME280;13016;52.162;21.034;2023-02-14T09:32:41;102185.45;;;10.25;55.76
24996;BME280;13016;52.162;21.034;2023-02-14T09:35:07;102183.14;;;10.19;56.00
24996;BME280;13016;52.162;21.034;2023-02-14T09:37:32;102187.81;;;10.16;55.88
24996;BME280;13016;52.162;21.034;2023-02-14T09:39:57;102189.38;;;10.23;56.25
24996;BME280;13016;52.162;21.034;2023-02-14T09:42:35;102188.84;;;10.34;55.63
24996;BME280;13016;52.162;21.034;2023-02-14T09:45:14;102185.23;;;10.25;55.81
24996;BME280;13016;52.162;21.034;2023-02-14T09:48:05;102188.50;;;10.45;55.62
24996;BME280;13016;52.162;21.034;2023-02-14T09:50:37;102193.20;;;10.58;55.03
24996;BME280;13016;52.162;21.034;2023-02-14T09:53:25;102192.50;;;10.74;54.79
24996;BME280;13016;52.162;21.034;2023-02-14T09:56:00;102193.42;;;10.89;54.38
24996;BME280;13016;52.162;21.034;2023-02-14T10:01:22;102198.52;;;10.94;54.08
24996;BME280;13016;52.162;21.034;2023-02-14T10:11:26;102203.73;;;10.76;54.41
24996;BME280;13016;52.162;21.034;2023-02-14T10:16:36;102202.23;;;10.73;54.73
24996;BME280;13016;52.162;21.034;2023-02-14T10:19:37;102199.05;;;10.89;54.37
24996;BME280;13016;52.162;21.034;2023-02-14T10:22:09;102202.12;;;10.77;54.11
24996;BME280;13016;52.162;21.034;2023-02-14T10:24:47;102202.02;;;10.64;54.73
24996;BME280;13016;52.162;21.034;2023-02-14T10:27:38;102196.54;;;10.75;54.76
24996;BME280;13016;52.162;21.034;2023-02-14T10:30:11;102196.98;;;10.72;54.43
24996;BME280;13016;52.162;21.034;2023-02-14T10:32:45;102194.23;;;10.86;54.66
24996;BME280;13016;52.162;21.034;2023-02-14T10:38:14;102195.58;;;11.23;53.81
24996;BME280;13016;52.162;21.034;2023-02-14T10:41:08;102193.50;;;11.12;53.11
24996;BME280;13016;52.162;21.034;2023-02-14T10:49:01;102197.78;;;10.90;53.79
24996;BME280;13016;52.162;21.034;2023-02-14T10:51:41;102195.15;;;10.79;53.82
24996;BME280;13016;52.162;21.034;2023-02-14T10:54:24;102194.79;;;10.69;54.03
24996;BME280;13016;52.162;21.034;2023-02-14T10:57:42;102186.60;;;10.76;54.08
24996;BME280;13016;52.162;21.034;2023-02-14T11:00:00;102188.20;;;10.71;54.30
24996;BME280;13016;52.162;21.034;2023-02-14T11:02:55;102187.92;;;10.63;54.30
24996;BME280;13016;52.162;21.034;2023-02-14T11:05:27;102191.62;;;10.63;54.54
24996;BME280;13016;52.162;21.034;2023-02-14T11:07:55;102190.57;;;10.79;54.79
24996;BME280;13016;52.162;21.034;2023-02-14T11:10:25;102189.93;;;10.93;54.03
24996;BME280;13016;52.162;21.034;2023-02-14T11:12:51;102189.08;;;10.82;54.33
24996;BME280;13016;52.162;21.034;2023-02-14T11:17:45;102188.64;;;10.89;54.17
24996;BME280;13016;52.162;21.034;2023-02-14T11:20:24;102180.89;;;10.88;54.22
24996;BME280;13016;52.162;21.034;2023-02-14T11:22:50;102184.98;;;10.88;54.11
24996;BME280;13016;52.162;21.034;2023-02-14T11:25:29;102186.17;;;11.14;53.78
24996;BME280;13016;52.162;21.034;2023-02-14T11:28:04;102182.71;;;11.08;53.59
24996;BME280;13016;52.162;21.034;2023-02-14T11:30:40;102181.06;;;11.14;53.55
24996;BME280;13016;52.162;21.034;2023-02-14T11:33:12;102176.16;;;11.08;53.59
24996;BME280;13016;52.162;21.034;2023-02-14T11:35:49;102178.80;;;10.98;53.77
24996;BME280;13016;52.162;21.034;2023-02-14T11:38:34;102176.57;;;11.01;54.00
24996;BME280;13016;52.162;21.034;2023-02-14T11:41:01;102176.93;;;11.12;53.83
24996;BME280;13016;52.162;21.034;2023-02-14T11:46:09;102174.17;;;11.20;53.15
24996;BME280;13016;52.162;21.034;2023-02-14T11:48:36;102174.40;;;11.23;53.28
24996;BME280;13016;52.162;21.034;2023-02-14T11:51:12;102171.41;;;11.22;53.44
24996;BME280;13016;52.162;21.034;2023-02-14T11:53:51;102168.58;;;11.18;53.55
24996;BME280;13016;52.162;21.034;2023-02-14T11:56:21;102163.69;;;11.26;53.48
24996;BME280;13016;52.162;21.034;2023-02-14T11:58:52;102163.30;;;11.37;53.21
24996;BME280;13016;52.162;21.034;2023-02-14T12:01:23;102165.21;;;11.47;52.91
24996;BME280;13016;52.162;21.034;2023-02-14T12:03:51;102165.65;;;11.55;52.75
24996;BME280;13016;52.162;21.034;2023-02-14T12:06:26;102160.80;;;11.57;52.74
24996;BME280;13016;52.162;21.034;2023-02-14T12:11:58;102154.04;;;11.63;52.76
24996;BME280;13016;52.162;21.034;2023-02-14T12:14:37;102153.95;;;11.70;52.84
24996;BME280;13016;52.162;21.034;2023-02-14T12:17:27;102155.84;;;11.81;52.22
24996;BME280;13016;52.162;21.034;2023-02-14T12:20:16;102151.78;;;11.72;51.96
24996;BME280;13016;52.162;21.034;2023-02-14T12:23:04;102151.92;;;11.57;52.17
24996;BME280;13016;52.162;21.034;2023-02-14T12:25:55;102156.80;;;11.64;52.57
24996;BME280;13016;52.162;21.034;2023-02-14T12:28:27;102156.61;;;11.80;52.39
24996;BME280;13016;52.162;21.034;2023-02-14T12:30:55;102154.42;;;11.85;52.23
24996;BME280;13016;52.162;21.034;2023-02-14T12:33:24;102149.59;;;11.88;52.10
24996;BME280;13016;52.162;21.034;2023-02-14T12:36:03;102154.15;;;11.84;52.05
24996;BME280;13016;52.162;21.034;2023-02-14T12:44:26;102139.25;;;11.81;52.26
24996;BME280;13016;52.162;21.034;2023-02-14T12:47:46;102140.49;;;11.98;52.15
24996;BME280;13016;52.162;21.034;2023-02-14T12:52:57;102144.06;;;12.06;51.59
24996;BME280;13016;52.162;21.034;2023-02-14T12:55:32;102138.67;;;12.13;51.68
24996;BME280;13016;52.162;21.034;2023-02-14T13:07:11;102142.23;;;12.08;51.52
24996;BME280;13016;52.162;21.034;2023-02-14T13:13:17;102144.83;;;12.05;51.57
24996;BME280;13016;52.162;21.034;2023-02-14T13:22:05;102139.98;;;12.07;51.53
24996;BME280;13016;52.162;21.034;2023-02-14T13:29:01;102147.65;;;11.92;52.00
24996;BME280;13016;52.162;21.034;2023-02-14T13:31:27;102146.20;;;12.06;51.52
24996;BME280;13016;52.162;21.034;2023-02-14T13:34:01;102148.62;;;11.99;51.56
24996;BME280;13016;52.162;21.034;2023-02-14T13:36:28;102147.89;;;12.04;51.48
24996;BME280;13016;52.162;21.034;2023-02-14T13:38:56;102148.41;;;11.90;51.78
24996;BME280;13016;52.162;21.034;2023-02-14T13:41:26;102147.03;;;11.94;52.03
24996;BME280;13016;52.162;21.034;2023-02-14T13:49:00;102148.52;;;12.06;51.71
24996;BME280;13016;52.162;21.034;2023-02-14T13:51:49;102148.02;;;12.14;51.92
24996;BME280;13016;52.162;21.034;2023-02-14T13:57:40;102144.27;;;12.10;51.83
24996;BME280;13016;52.162;21.034;2023-02-14T14:02:50;102144.55;;;11.94;52.03
24996;BME280;13016;52.162;21.034;2023-02-14T14:11:00;102130.66;;;12.15;51.79
24996;BME280;13016;52.162;21.034;2023-02-14T14:18:48;102134.94;;;11.82;52.38
24996;BME280;13016;52.162;21.034;2023-02-14T14:21:27;102135.45;;;11.83;52.27
24996;BME280;13016;52.162;21.034;2023-02-14T14:24:11;102140.26;;;11.86;52.78
24996;BME280;13016;52.162;21.034;2023-02-14T14:26:42;102139.16;;;12.01;52.38
24996;BME280;13016;52.162;21.034;2023-02-14T14:29:21;102134.07;;;12.00;52.33
24996;BME280;13016;52.162;21.034;2023-02-14T14:31:49;102138.74;;;12.02;52.39
24996;BME280;13016;52.162;21.034;2023-02-14T14:34:17;102140.02;;;12.02;52.28
24996;BME280;13016;52.162;21.034;2023-02-14T14:36:43;102140.98;;;12.00;52.42
24996;BME280;13016;52.162;21.034;2023-02-14T14:39:24;102144.21;;;12.08;52.24
24996;BME280;13016;52.162;21.034;2023-02-14T14:41:51;102142.58;;;12.08;52.25
24996;BME280;13016;52.162;21.034;2023-02-14T14:44:16;102147.31;;;11.96;52.60
24996;BME280;13016;52.162;21.034;2023-02-14T14:46:42;102150.60;;;11.84;53.15
24996;BME280;13016;52.162;21.034;2023-02-14T14:49:11;102150.02;;;11.95;53.22
24996;BME280;13016;52.162;21.034;2023-02-14T14:51:36;102149.90;;;11.98;53.03
24996;BME280;13016;52.162;21.034;2023-02-14T14:54:12;102148.16;;;11.69;53.44
24996;BME280;13016;52.162;21.034;2023-02-14T14:56:49;102150.50;;;11.68;53.64
24996;BME280;13016;52.162;21.034;2023-02-14T14:59:25;102146.69;;;11.76;53.63
24996;BME280;13016;52.162;21.034;2023-02-14T15:01:52;102146.38;;;11.79;53.84
24996;BME280;13016;52.162;21.034;2023-02-14T15:04:25;102150.38;;;11.90;53.53
24996;BME280;13016;52.162;21.034;2023-02-14T15:07:36;102146.90;;;11.93;53.40
24996;BME280;13016;52.162;21.034;2023-02-14T15:10:20;102146.93;;;11.93;53.34
24996;BME280;13016;52.162;21.034;2023-02-14T15:12:45;102143.05;;;11.96;53.38
24996;BME280;13016;52.162;21.034;2023-02-14T15:15:14;102141.48;;;11.78;53.25
24996;BME280;13016;52.162;21.034;2023-02-14T15:17:41;102144.92;;;11.85;53.70
24996;BME280;13016;52.162;21.034;2023-02-14T15:20:13;102144.05;;;11.93;53.40
24996;BME280;13016;52.162;21.034;2023-02-14T15:22:43;102144.81;;;11.92;53.18
24996;BME280;13016;52.162;21.034;2023-02-14T15:25:15;102149.00;;;11.80;53.38
24996;BME280;13016;52.162;21.034;2023-02-14T15:27:42;102152.40;;;11.79;53.41
24996;BME280;13016;52.162;21.034;2023-02-14T15:30:30;102149.38;;;11.84;53.62
24996;BME280;13016;52.162;21.034;2023-02-14T15:32:56;102154.94;;;11.82;53.37
24996;BME280;13016;52.162;21.034;2023-02-14T15:35:25;102149.21;;;11.74;53.50
24996;BME280;13016;52.162;21.034;2023-02-14T15:37:51;102152.35;;;11.80;53.61
24996;BME280;13016;52.162;21.034;2023-02-14T15:40:21;102152.27;;;11.77;53.51
24996;BME280;13016;52.162;21.034;2023-02-14T15:42:47;102151.30;;;11.65;53.69
24996;BME280;13016;52.162;21.034;2023-02-14T15:48:04;102153.32;;;11.68;53.71
24996;BME280;13016;52.162;21.034;2023-02-14T15:50:34;102151.01;;;11.64;53.81
24996;BME280;13016;52.162;21.034;2023-02-14T15:55:53;102156.80;;;11.55;54.17
24996;BME280;13016;52.162;21.034;2023-02-14T15:58:21;102157.88;;;11.45;54.12
24996;BME280;13016;52.162;21.034;2023-02-14T16:00:49;102159.73;;;11.52;54.59
24996;BME280;13016;52.162;21.034;2023-02-14T16:03:22;102161.48;;;11.62;54.22
24996;BME280;13016;52.162;21.034;2023-02-14T16:09:26;102166.60;;;11.68;54.01
24996;BME280;13016;52.162;21.034;2023-02-14T16:11:52;102169.02;;;11.59;53.84
24996;BME280;13016;52.162;21.034;2023-02-14T16:14:40;102168.67;;;11.49;54.28
24996;BME280;13016;52.162;21.034;2023-02-14T16:17:11;102170.36;;;11.51;54.34
24996;BME280;13016;52.162;21.034;2023-02-14T16:25:47;102174.10;;;11.50;54.41
24996;BME280;13016;52.162;21.034;2023-02-14T16:28:29;102174.94;;;11.32;54.66
24996;BME280;13016;52.162;21.034;2023-02-14T16:30:56;102176.86;;;11.38;54.69
24996;BME280;13016;52.162;21.034;2023-02-14T16:33:26;102179.65;;;11.39;54.79
24996;BME280;13016;52.162;21.034;2023-02-14T16:36:20;102181.46;;;11.28;54.96
24996;BME280;13016;52.162;21.034;2023-02-14T16:38:46;102186.37;;;11.39;55.19
24996;BME280;13016;52.162;21.034;2023-02-14T16:41:30;102187.95;;;11.44;54.76
24996;BME280;13016;52.162;21.034;2023-02-14T16:44:00;102188.71;;;11.47;54.78
24996;BME280;13016;52.162;21.034;2023-02-14T16:46:30;102186.29;;;11.41;54.66
24996;BME280;13016;52.162;21.034;2023-02-14T16:48:57;102183.71;;;11.34;54.71
24996;BME280;13016;52.162;21.034;2023-02-14T16:51:26;102185.09;;;11.25;55.14